Time;durP1;ratioP1;P1;durP2;ratioP2;P2;SDS_P1;SDS_P2;PMS_P1;PMS_P2;Temp;Humidity;BMP_temperature;BMP_pressure;BME280_temperature;BME280_humidity;BME280_pressure;Samples;Min_cycle;Max_cycle;Signal;HPM_P1;HPM_P2
2024/01/05 00:01:25;;;;;;;19.65;4.97;;;2.70;99.90;;;;;;5003919;28;20025;-93
2024/01/05 00:03:51;;;;;;;18.67;4.25;;;2.70;99.90;;;;;;5003207;28;20037;-95
2024/01/05 00:06:17;;;;;;;11.25;3.95;;;2.70;99.90;;;;;;4995169;28;20027;-94
2024/01/05 00:08:43;;;;;;;18.55;3.40;;;2.80;99.90;;;;;;4994060;28;20104;-96
2024/01/05 00:11:08;;;;;;;20.60;6.57;;;2.80;99.90;;;;;;5001997;28;20033;-93
2024/01/05 00:13:34;;;;;;;17.77;5.90;;;2.80;99.90;;;;;;5001434;28;20527;-93
2024/01/05 00:16:00;;;;;;;17.52;6.95;;;2.70;99.90;;;;;;5020085;28;20036;-94
2024/01/05 00:18:25;;;;;;;16.88;6.15;;;2.70;99.90;;;;;;5000482;28;20057;-92
2024/01/05 00:20:51;;;;;;;13.20;4.90;;;2.70;99.90;;;;;;5000103;28;20022;-93
2024/01/05 00:23:17;;;;;;;14.00;3.92;;;2.70;99.90;;;;;;5000747;28;20102;-95
2024/01/05 00:25:43;;;;;;;12.75;3.75;;;2.70;99.90;;;;;;5001419;28;20026;-93
2024/01/05 00:28:09;;;;;;;12.10;2.88;;;2.70;99.90;;;;;;5001628;28;20022;-93
2024/01/05 00:30:34;;;;;;;20.58;3.72;;;2.80;99.90;;;;;;5002058;28;20559;-95
2024/01/05 00:33:00;;;;;;;15.98;3.50;;;2.80;99.90;;;;;;5002827;28;20408;-93
2024/01/05 00:35:26;;;;;;;24.98;9.30;;;2.80;99.90;;;;;;5002686;28;20045;-95
2024/01/05 00:37:52;;;;;;;36.40;11.20;;;2.90;99.90;;;;;;5002262;28;20506;-95
2024/01/05 00:40:18;;;;;;;26.45;9.25;;;2.80;99.90;;;;;;5007527;28;20488;-95
2024/01/05 00:42:44;;;;;;;19.23;7.60;;;2.80;99.90;;;;;;5001731;28;20033;-96
2024/01/05 00:45:10;;;;;;;15.95;5.78;;;2.90;99.90;;;;;;5001711;28;20026;-95
2024/01/05 00:47:36;;;;;;;17.52;5.80;;;2.90;99.90;;;;;;5001501;28;20029;-95
2024/01/05 00:50:02;;;;;;;22.73;8.23;;;2.90;99.90;;;;;;5000695;28;20057;-95
2024/01/05 00:52:27;;;;;;;14.45;5.20;;;3.00;99.90;;;;;;5000391;28;20057;-95
2024/01/05 00:54:53;;;;;;;12.50;4.95;;;3.00;99.90;;;;;;4999123;28;20045;-93
2024/01/05 00:57:19;;;;;;;9.65;3.80;;;3.00;99.90;;;;;;4999687;28;20014;-95
2024/01/05 00:59:44;;;;;;;9.57;3.40;;;3.00;99.90;;;;;;4999976;28;20439;-94
2024/01/05 01:02:10;;;;;;;8.70;2.40;;;3.00;99.90;;;;;;4999877;28;20120;-95
2024/01/05 01:04:36;;;;;;;11.40;3.75;;;3.00;99.90;;;;;;4995007;28;20056;-93
2024/01/05 01:07:02;;;;;;;16.30;2.40;;;3.10;99.90;;;;;;4998559;28;20061;-94
2024/01/05 01:09:28;;;;;;;8.10;3.25;;;3.10;99.90;;;;;;4998258;28;20044;-94
2024/01/05 01:11:53;;;;;;;7.82;2.40;;;3.10;99.90;;;;;;4997904;28;20048;-94
2024/01/05 01:14:19;;;;;;;10.63;2.92;;;3.10;99.90;;;;;;4998089;28;20042;-93
2024/01/05 01:16:45;;;;;;;17.35;2.20;;;3.10;99.90;;;;;;4998723;28;20030;-94
2024/01/05 01:19:11;;;;;;;12.68;2.65;;;3.10;99.90;;;;;;4998800;28;20022;-93
2024/01/05 01:21:36;;;;;;;13.40;2.85;;;3.20;99.90;;;;;;4997775;28;20026;-93
2024/01/05 01:24:02;;;;;;;9.23;2.50;;;3.20;99.90;;;;;;5014315;28;20022;-94
2024/01/05 01:26:28;;;;;;;9.70;2.50;;;3.20;99.90;;;;;;4998509;28;20030;-95
2024/01/05 01:28:53;;;;;;;12.45;2.05;;;3.20;99.90;;;;;;4998880;28;20030;-93
2024/01/05 01:31:19;;;;;;;19.48;2.22;;;3.20;99.90;;;;;;4998602;28;20365;-94
2024/01/05 01:33:45;;;;;;;11.00;2.25;;;3.20;99.90;;;;;;4998303;28;20072;-94
2024/01/05 01:36:11;;;;;;;20.67;2.20;;;3.20;99.90;;;;;;4998533;28;20034;-93
2024/01/05 01:38:38;;;;;;;5.40;1.70;;;3.30;99.90;;;;;;5014753;28;20022;-95
2024/01/05 01:41:04;;;;;;;15.27;2.35;;;3.30;99.90;;;;;;4998559;28;20027;-93
2024/01/05 01:43:30;;;;;;;7.40;1.90;;;3.30;99.90;;;;;;4998986;28;20101;-93
2024/01/05 01:45:57;;;;;;;10.07;2.38;;;3.30;99.90;;;;;;4998467;28;20041;-93
2024/01/05 01:48:24;;;;;;;9.35;1.60;;;3.30;99.90;;;;;;4998480;28;20053;-95
2024/01/05 01:50:52;;;;;;;10.55;1.73;;;3.30;99.90;;;;;;4998477;28;20033;-95
2024/01/05 01:53:20;;;;;;;13.00;1.67;;;3.30;99.90;;;;;;4998161;28;20021;-95
2024/01/05 01:55:50;;;;;;;8.60;1.80;;;3.30;99.90;;;;;;4997914;28;20038;-95
2024/01/05 01:58:18;;;;;;;6.93;1.70;;;3.30;99.90;;;;;;4997820;28;20038;-94
2024/01/05 02:00:47;;;;;;;14.70;1.45;;;3.30;99.90;;;;;;4997402;28;20061;-94
2024/01/05 02:03:14;;;;;;;6.28;1.45;;;3.30;99.90;;;;;;4997895;28;20026;-94
2024/01/05 02:05:41;;;;;;;6.43;1.50;;;3.40;99.90;;;;;;4999340;28;20083;-94
2024/01/05 02:08:07;;;;;;;9.35;1.58;;;3.40;99.90;;;;;;4997799;28;20025;-93
2024/01/05 02:10:33;;;;;;;9.35;1.60;;;3.40;99.90;;;;;;4998014;28;20030;-94
2024/01/05 02:12:59;;;;;;;6.85;1.40;;;3.40;99.90;;;;;;4996278;28;20076;-93
2024/01/05 02:15:25;;;;;;;12.05;1.55;;;3.40;99.90;;;;;;4999105;28;20072;-95
2024/01/05 02:17:50;;;;;;;5.78;1.38;;;3.50;99.90;;;;;;5017615;28;20042;-94
2024/01/05 02:20:16;;;;;;;8.45;1.60;;;3.50;99.90;;;;;;4995761;28;20072;-93
2024/01/05 02:22:46;;;;;;;8.70;1.30;;;3.50;99.90;;;;;;4988047;28;20049;-94
2024/01/05 02:25:12;;;;;;;6.05;1.20;;;3.50;99.90;;;;;;4974811;28;20039;-95
2024/01/05 02:27:39;;;;;;;5.85;1.30;;;3.50;99.90;;;;;;4974616;28;20031;-94
2024/01/05 02:30:05;;;;;;;9.02;1.63;;;3.50;99.90;;;;;;4974669;28;20034;-94
2024/01/05 02:32:31;;;;;;;4.32;1.52;;;3.50;99.90;;;;;;4974313;28;20027;-95
2024/01/05 02:34:57;;;;;;;6.88;1.33;;;3.50;99.90;;;;;;4975432;28;20031;-94
2024/01/05 02:37:23;;;;;;;6.20;1.65;;;3.60;99.90;;;;;;4973817;28;20030;-94
2024/01/05 02:39:48;;;;;;;10.00;1.67;;;3.60;99.90;;;;;;4977888;28;20190;-94
2024/01/05 02:42:14;;;;;;;6.93;1.30;;;3.60;99.90;;;;;;4974312;28;20027;-95
2024/01/05 02:44:40;;;;;;;9.90;1.42;;;3.60;99.90;;;;;;4974785;28;20503;-94
2024/01/05 02:47:06;;;;;;;5.82;1.00;;;3.70;99.90;;;;;;4973907;28;20027;-95
2024/01/05 02:49:32;;;;;;;14.48;3.50;;;3.70;99.90;;;;;;4974300;28;20041;-94
2024/01/05 02:51:57;;;;;;;11.32;1.40;;;3.70;99.90;;;;;;4973990;28;20034;-94
2024/01/05 02:54:27;;;;;;;8.05;1.15;;;3.70;99.90;;;;;;4973941;28;20031;-95
2024/01/05 02:56:52;;;;;;;11.18;1.45;;;3.70;99.90;;;;;;4974955;28;20041;-94
2024/01/05 02:59:19;;;;;;;9.77;1.05;;;3.80;99.90;;;;;;4974941;28;20053;-94
2024/01/05 03:01:48;;;;;;;8.27;1.75;;;3.70;99.90;;;;;;4984127;28;20033;-94
2024/01/05 03:04:14;;;;;;;9.68;1.27;;;3.80;99.90;;;;;;4985508;28;20019;-93
2024/01/05 03:06:39;;;;;;;4.32;0.68;;;3.80;99.90;;;;;;4983508;28;20042;-94
2024/01/05 03:09:08;;;;;;;9.48;1.20;;;3.80;99.90;;;;;;4981686;28;20026;-93
2024/01/05 03:11:35;;;;;;;3.15;1.17;;;3.80;99.90;;;;;;4979668;28;20030;-93
2024/01/05 03:14:01;;;;;;;10.18;1.63;;;3.80;99.90;;;;;;4999467;28;20030;-94
2024/01/05 03:16:26;;;;;;;5.13;0.82;;;3.80;99.90;;;;;;5001062;28;20030;-94
2024/01/05 03:18:52;;;;;;;5.63;1.10;;;3.80;99.90;;;;;;5006796;28;20026;-93
2024/01/05 03:21:18;;;;;;;9.07;1.02;;;3.80;99.90;;;;;;5007643;28;20524;-94
2024/01/05 03:23:44;;;;;;;5.18;1.00;;;3.90;99.90;;;;;;5008460;28;20079;-94
2024/01/05 03:26:10;;;;;;;9.52;1.27;;;3.90;99.90;;;;;;5003405;28;20026;-94
2024/01/05 03:28:38;;;;;;;8.35;1.10;;;3.90;99.90;;;;;;5000817;28;20029;-93
2024/01/05 03:31:04;;;;;;;8.85;1.20;;;3.90;99.90;;;;;;5001654;28;20030;-94
2024/01/05 03:33:30;;;;;;;3.38;0.98;;;3.90;99.90;;;;;;5001606;28;20109;-94
2024/01/05 03:35:55;;;;;;;5.22;1.20;;;3.90;99.90;;;;;;5000868;28;20042;-94
2024/01/05 03:38:21;;;;;;;10.18;1.17;;;3.80;99.90;;;;;;5001490;28;20026;-94
2024/01/05 03:40:47;;;;;;;7.18;1.10;;;3.80;99.90;;;;;;5001225;28;20079;-93
2024/01/05 03:43:13;;;;;;;7.55;0.90;;;3.80;99.90;;;;;;4999407;28;20161;-94
2024/01/05 03:45:38;;;;;;;14.35;2.40;;;3.80;99.90;;;;;;5000127;28;20022;-94
2024/01/05 03:48:05;;;;;;;5.60;0.95;;;3.70;99.90;;;;;;4999871;28;20029;-94
2024/01/05 03:50:31;;;;;;;10.60;0.90;;;3.70;99.90;;;;;;5000123;28;20038;-94
2024/01/05 03:52:57;;;;;;;7.65;1.27;;;3.70;99.90;;;;;;5000190;28;20022;-94
2024/01/05 03:55:23;;;;;;;6.00;1.05;;;3.70;99.90;;;;;;5000477;28;20041;-93
2024/01/05 03:57:48;;;;;;;5.90;1.35;;;3.60;99.90;;;;;;4999396;28;20116;-94
2024/01/05 04:00:14;;;;;;;9.43;1.08;;;3.60;99.90;;;;;;4999725;28;20033;-94
2024/01/05 04:02:40;;;;;;;5.38;1.20;;;3.60;99.90;;;;;;4999775;28;20034;-94
2024/01/05 04:05:06;;;;;;;3.00;1.25;;;3.50;99.90;;;;;;5000204;28;20072;-93
2024/01/05 04:07:32;;;;;;;4.18;1.15;;;3.50;99.90;;;;;;5017078;28;20030;-93
2024/01/05 04:09:58;;;;;;;5.97;1.02;;;3.50;99.90;;;;;;5000292;28;20032;-94
2024/01/05 04:12:23;;;;;;;4.32;0.90;;;3.50;99.90;;;;;;4999654;28;20519;-94
2024/01/05 04:14:49;;;;;;;6.57;1.23;;;3.50;99.90;;;;;;4999049;28;20037;-94
2024/01/05 04:17:15;;;;;;;4.32;1.40;;;3.60;99.90;;;;;;4998764;28;20025;-94
2024/01/05 04:19:40;;;;;;;6.18;1.25;;;3.60;99.90;;;;;;4999401;28;20033;-93
2024/01/05 04:22:07;;;;;;;8.68;1.85;;;3.60;99.90;;;;;;4999063;28;20038;-94
2024/01/05 04:24:32;;;;;;;4.65;1.30;;;3.60;99.90;;;;;;4998180;28;20611;-94
2024/01/05 04:26:58;;;;;;;10.23;1.50;;;3.60;99.90;;;;;;4998343;28;20114;-94
2024/01/05 04:29:25;;;;;;;5.20;1.05;;;3.60;99.90;;;;;;4998790;28;20091;-94
2024/01/05 04:31:51;;;;;;;8.52;1.58;;;3.50;99.90;;;;;;4999035;28;20033;-93
2024/01/05 04:34:16;;;;;;;3.40;1.52;;;3.50;99.90;;;;;;4998800;28;20033;-93
2024/01/05 04:36:42;;;;;;;8.73;1.92;;;3.50;99.90;;;;;;4998851;28;20100;-93
2024/01/05 04:39:09;;;;;;;6.13;1.50;;;3.50;99.90;;;;;;4998963;28;20049;-94
2024/01/05 04:41:35;;;;;;;3.50;1.15;;;3.50;99.90;;;;;;4998809;28;20026;-94
2024/01/05 04:44:01;;;;;;;5.32;1.10;;;3.50;99.90;;;;;;4998360;28;20030;-93
2024/01/05 04:46:26;;;;;;;10.77;1.60;;;3.40;99.90;;;;;;4998970;28;20531;-93
2024/01/05 04:48:52;;;;;;;6.32;2.10;;;3.40;99.90;;;;;;4998488;28;20041;-94
2024/01/05 04:51:18;;;;;;;4.65;1.35;;;3.40;99.90;;;;;;4998162;28;20037;-94
2024/01/05 04:53:43;;;;;;;5.78;1.10;;;3.40;99.90;;;;;;4998976;28;20374;-95
2024/01/05 04:56:09;;;;;;;7.97;1.95;;;3.40;99.90;;;;;;4998546;28;20045;-94
2024/01/05 04:58:35;;;;;;;7.13;1.50;;;3.40;99.90;;;;;;4998476;28;20018;-93
2024/01/05 05:01:01;;;;;;;6.75;2.10;;;3.40;99.90;;;;;;4998464;28;20022;-92
2024/01/05 05:03:26;;;;;;;7.65;1.70;;;3.40;99.90;;;;;;4997773;28;20477;-93
2024/01/05 05:05:52;;;;;;;12.63;1.75;;;3.40;99.90;;;;;;4998240;28;20661;-94
2024/01/05 05:08:19;;;;;;;11.65;1.70;;;3.40;99.90;;;;;;4998297;28;20543;-94
2024/01/05 05:10:45;;;;;;;6.05;1.30;;;3.40;99.90;;;;;;4996794;28;20026;-94
2024/01/05 05:13:10;;;;;;;9.20;1.63;;;3.40;99.90;;;;;;4997924;28;20061;-94
2024/01/05 05:15:37;;;;;;;9.93;1.45;;;3.50;99.90;;;;;;4998510;28;20042;-93
2024/01/05 05:18:03;;;;;;;6.38;1.60;;;3.50;99.90;;;;;;4998023;28;20555;-94
2024/01/05 05:20:28;;;;;;;6.57;1.20;;;3.50;99.90;;;;;;4998012;28;20029;-93
2024/01/05 05:22:54;;;;;;;7.63;1.35;;;3.50;99.90;;;;;;4998166;28;20021;-93
2024/01/05 05:25:20;;;;;;;4.43;1.40;;;3.50;99.90;;;;;;4998183;28;20040;-94
2024/01/05 05:27:45;;;;;;;4.30;1.52;;;3.50;99.90;;;;;;4998042;28;20033;-93
2024/01/05 05:30:11;;;;;;;4.50;1.70;;;3.50;99.90;;;;;;4998883;28;20030;-92
2024/01/05 05:32:37;;;;;;;7.47;1.80;;;3.60;99.90;;;;;;4998409;28;20029;-93
2024/01/05 05:35:03;;;;;;;4.82;1.60;;;3.60;99.90;;;;;;4997979;28;20179;-94
2024/01/05 05:37:29;;;;;;;9.07;1.63;;;3.60;99.90;;;;;;4998059;28;20057;-93
2024/01/05 05:39:55;;;;;;;5.35;1.48;;;3.60;99.90;;;;;;4997961;28;20077;-93
2024/01/05 05:42:20;;;;;;;7.65;2.15;;;3.60;99.90;;;;;;4997710;28;20029;-93
2024/01/05 05:44:46;;;;;;;7.47;2.08;;;3.60;99.90;;;;;;4997943;28;20120;-93
2024/01/05 05:47:12;;;;;;;5.13;1.30;;;3.60;99.90;;;;;;4998056;28;20025;-93
2024/01/05 05:49:38;;;;;;;7.88;1.63;;;3.60;99.90;;;;;;4998379;28;20026;-94
2024/01/05 05:52:05;;;;;;;7.72;1.23;;;3.60;99.90;;;;;;4997404;28;20550;-93
2024/01/05 05:54:31;;;;;;;3.88;1.40;;;3.60;99.90;;;;;;4997480;28;20026;-93
2024/01/05 05:56:57;;;;;;;4.40;1.10;;;3.60;99.90;;;;;;4997498;28;20030;-93
2024/01/05 05:59:23;;;;;;;3.75;1.10;;;3.60;99.90;;;;;;4997787;28;20121;-93
2024/01/05 06:01:49;;;;;;;4.63;1.38;;;3.70;99.90;;;;;;4997175;28;20064;-93
2024/01/05 06:04:15;;;;;;;4.28;1.30;;;3.70;99.90;;;;;;4997864;28;20026;-93
2024/01/05 06:06:41;;;;;;;6.22;1.70;;;3.70;99.90;;;;;;4997530;28;20087;-93
2024/01/05 06:09:07;;;;;;;4.78;1.40;;;3.70;99.90;;;;;;4997489;28;20033;-93
2024/01/05 06:11:33;;;;;;;5.93;1.70;;;3.70;99.90;;;;;;4999273;28;20029;-93
2024/01/05 06:13:59;;;;;;;2.67;1.30;;;3.70;99.90;;;;;;5009420;28;20026;-93
2024/01/05 06:16:25;;;;;;;3.63;1.20;;;3.80;99.90;;;;;;4993035;28;20576;-94
2024/01/05 06:18:53;;;;;;;7.18;2.90;;;3.80;99.90;;;;;;5004324;28;20105;-94
2024/01/05 06:21:18;;;;;;;7.70;2.00;;;3.70;99.90;;;;;;5004554;28;20025;-94
2024/01/05 06:23:44;;;;;;;4.13;1.05;;;3.70;99.90;;;;;;4999249;28;20052;-93
2024/01/05 06:26:10;;;;;;;2.80;1.40;;;3.80;99.90;;;;;;4999441;28;20239;-93
2024/01/05 06:28:36;;;;;;;2.17;1.23;;;3.80;99.90;;;;;;4998678;28;20030;-93
2024/01/05 06:31:01;;;;;;;3.88;1.65;;;3.80;99.90;;;;;;4998200;28;20081;-92
2024/01/05 06:33:27;;;;;;;4.80;1.75;;;3.80;99.90;;;;;;4997691;28;20026;-93
2024/01/05 06:35:53;;;;;;;4.03;1.33;;;3.80;99.90;;;;;;4998552;28;20030;-92
2024/01/05 06:38:18;;;;;;;5.38;1.65;;;3.80;99.90;;;;;;4997332;28;20026;-92
2024/01/05 06:40:44;;;;;;;2.92;1.10;;;3.80;99.90;;;;;;4997708;28;20029;-92
2024/01/05 06:43:10;;;;;;;6.07;1.48;;;3.90;99.90;;;;;;4997418;28;20026;-93
2024/01/05 06:45:37;;;;;;;3.08;1.40;;;3.80;99.90;;;;;;4997387;28;20069;-93
2024/01/05 06:48:03;;;;;;;1.60;1.00;;;3.90;99.90;;;;;;4998294;28;20021;-92
2024/01/05 06:50:29;;;;;;;3.97;1.50;;;3.90;99.90;;;;;;4997815;28;20026;-92
2024/01/05 06:52:54;;;;;;;6.00;1.80;;;3.90;99.90;;;;;;4999694;28;20060;-94
2024/01/05 06:55:20;;;;;;;2.97;1.30;;;3.90;99.90;;;;;;5002359;28;20044;-93
2024/01/05 06:57:47;;;;;;;5.47;1.70;;;3.90;99.90;;;;;;5003314;28;20113;-91
2024/01/05 07:00:14;;;;;;;3.42;1.42;;;3.90;99.90;;;;;;5004185;28;20025;-93
2024/01/05 07:02:40;;;;;;;4.47;1.92;;;3.90;99.90;;;;;;5000511;28;20026;-93
2024/01/05 07:05:06;;;;;;;4.38;1.60;;;4.00;99.90;;;;;;5001299;28;20033;-93
2024/01/05 07:07:32;;;;;;;4.05;1.70;;;4.00;99.90;;;;;;5000553;28;20025;-93
2024/01/05 07:09:58;;;;;;;6.65;2.13;;;4.00;99.90;;;;;;5000364;28;20025;-92
2024/01/05 07:12:24;;;;;;;4.10;1.55;;;4.10;99.90;;;;;;4997971;28;20042;-94
2024/01/05 07:14:50;;;;;;;3.15;1.50;;;4.00;99.90;;;;;;4998626;28;20034;-93
2024/01/05 07:17:16;;;;;;;3.75;1.60;;;4.10;99.90;;;;;;5002028;28;20042;-94
2024/01/05 07:19:41;;;;;;;4.00;1.40;;;4.10;99.90;;;;;;5001587;28;20026;-93
2024/01/05 07:22:08;;;;;;;4.15;1.25;;;4.10;99.90;;;;;;4999530;28;20030;-93
2024/01/05 07:24:37;;;;;;;4.28;1.50;;;4.00;99.90;;;;;;4998036;28;20026;-92
2024/01/05 07:27:03;;;;;;;3.70;1.33;;;4.00;99.90;;;;;;5014310;28;20160;-93
2024/01/05 07:29:29;;;;;;;5.50;1.52;;;4.00;99.90;;;;;;4997629;28;20156;-92
2024/01/05 07:31:54;;;;;;;2.38;1.00;;;4.00;99.90;;;;;;5000419;28;20029;-93
2024/01/05 07:34:20;;;;;;;3.97;1.25;;;4.00;99.90;;;;;;5000142;28;20034;-92
2024/01/05 07:36:46;;;;;;;1.95;1.10;;;4.00;99.90;;;;;;5000946;28;20025;-93
2024/01/05 07:39:15;;;;;;;2.50;1.15;;;3.90;99.90;;;;;;4999192;28;20101;-95
2024/01/05 07:41:41;;;;;;;1.95;1.10;;;3.90;99.90;;;;;;4995834;28;20501;-94
2024/01/05 07:44:07;;;;;;;5.68;1.50;;;3.90;99.90;;;;;;4995201;28;20049;-94
2024/01/05 07:46:33;;;;;;;2.95;1.05;;;3.90;99.90;;;;;;4990813;28;20057;-93
2024/01/05 07:48:59;;;;;;;3.83;1.08;;;3.90;99.90;;;;;;5004815;28;20113;-93
2024/01/05 07:51:25;;;;;;;1.90;1.08;;;3.90;99.90;;;;;;4993323;28;20023;-94
2024/01/05 07:53:50;;;;;;;2.25;1.27;;;3.90;99.90;;;;;;4994805;28;20022;-93
2024/01/05 07:56:17;;;;;;;5.53;2.70;;;3.90;99.90;;;;;;4986060;28;20034;-94
2024/01/05 07:58:44;;;;;;;3.30;1.52;;;3.90;99.90;;;;;;4993427;28;20157;-93
2024/01/05 08:01:17;;;;;;;3.78;2.10;;;3.90;99.90;;;;;;4990325;28;20030;-92
2024/01/05 08:03:45;;;;;;;5.40;2.10;;;3.90;99.90;;;;;;4986166;28;20030;-93
2024/01/05 08:06:18;;;;;;;6.15;2.72;;;3.90;99.90;;;;;;4988871;28;20026;-93
2024/01/05 08:08:45;;;;;;;10.93;2.60;;;3.90;99.90;;;;;;4998801;28;20061;-94
2024/01/05 08:11:12;;;;;;;6.90;2.65;;;3.90;99.90;;;;;;4987798;28;20608;-93
2024/01/05 08:13:38;;;;;;;4.85;1.77;;;3.90;99.90;;;;;;4990621;28;20064;-93
2024/01/05 08:16:05;;;;;;;5.88;2.75;;;3.90;99.90;;;;;;4995894;28;20133;-93
2024/01/05 08:18:31;;;;;;;6.05;2.83;;;3.90;99.90;;;;;;4997787;28;20018;-93
2024/01/05 08:20:57;;;;;;;10.48;4.43;;;3.90;99.90;;;;;;4993254;28;20547;-94
2024/01/05 08:23:23;;;;;;;9.60;3.33;;;3.90;99.90;;;;;;5011401;28;20026;-94
2024/01/05 08:25:48;;;;;;;8.57;3.67;;;3.80;99.90;;;;;;4987945;28;20029;-94
2024/01/05 08:28:15;;;;;;;5.22;2.55;;;3.80;99.90;;;;;;4988940;28;20053;-94
2024/01/05 08:30:41;;;;;;;7.07;2.90;;;3.80;99.90;;;;;;4995601;28;20065;-93
2024/01/05 08:33:07;;;;;;;12.82;3.42;;;3.80;99.90;;;;;;5004079;28;20061;-93
2024/01/05 08:35:35;;;;;;;5.50;2.15;;;3.80;99.90;;;;;;4998923;28;20053;-93
2024/01/05 08:38:02;;;;;;;4.50;2.42;;;3.80;99.90;;;;;;4995884;28;20049;-94
2024/01/05 08:40:29;;;;;;;5.07;2.40;;;3.80;99.90;;;;;;4998271;28;20030;-94
2024/01/05 08:42:55;;;;;;;8.40;2.80;;;3.80;99.90;;;;;;4998398;28;20022;-94
2024/01/05 08:45:21;;;;;;;5.93;2.65;;;3.80;99.90;;;;;;4991668;28;20546;-94
2024/01/05 08:47:47;;;;;;;9.70;3.65;;;3.80;99.90;;;;;;5006697;28;20033;-94
2024/01/05 08:50:13;;;;;;;13.70;5.38;;;3.80;99.90;;;;;;4997786;28;20132;-94
2024/01/05 08:52:39;;;;;;;10.95;3.90;;;3.80;99.90;;;;;;4995341;28;20038;-94
2024/01/05 08:55:06;;;;;;;8.23;4.22;;;3.80;99.90;;;;;;4998534;28;20038;-93
2024/01/05 08:57:31;;;;;;;6.13;3.22;;;3.80;99.90;;;;;;4996310;28;20054;-94
2024/01/05 08:59:57;;;;;;;8.82;3.17;;;3.80;99.90;;;;;;4989028;28;20116;-93
2024/01/05 09:02:23;;;;;;;4.97;2.78;;;3.80;99.90;;;;;;4985041;28;20023;-93
2024/01/05 09:04:49;;;;;;;10.23;3.97;;;3.80;99.90;;;;;;4995334;28;20026;-93
2024/01/05 09:07:15;;;;;;;9.68;3.83;;;3.90;99.90;;;;;;4990928;28;20397;-93
2024/01/05 09:09:40;;;;;;;7.35;3.08;;;3.90;99.90;;;;;;4996159;28;20587;-93
2024/01/05 09:12:08;;;;;;;9.10;3.40;;;3.90;99.90;;;;;;4997765;28;20093;-93
2024/01/05 09:14:33;;;;;;;13.02;3.25;;;3.90;99.90;;;;;;4997141;28;20053;-93
2024/01/05 09:16:59;;;;;;;8.52;3.63;;;4.00;99.90;;;;;;4998358;28;20052;-93
2024/01/05 09:19:25;;;;;;;7.18;3.10;;;4.00;99.90;;;;;;4992441;28;20018;-93
2024/01/05 09:21:51;;;;;;;9.35;3.47;;;4.00;99.90;;;;;;4998382;28;20417;-92
2024/01/05 09:24:16;;;;;;;12.13;3.53;;;4.10;99.90;;;;;;4999551;28;20033;-93
2024/01/05 09:26:43;;;;;;;6.13;2.95;;;4.10;99.90;;;;;;5000069;28;20112;-93
2024/01/05 09:29:09;;;;;;;9.52;3.25;;;4.10;99.90;;;;;;5009441;28;20022;-93
2024/01/05 09:31:35;;;;;;;8.07;3.90;;;4.20;99.90;;;;;;5004921;28;20026;-93
2024/01/05 09:34:01;;;;;;;8.10;3.30;;;4.20;99.90;;;;;;5000984;28;20094;-93
2024/01/05 09:36:26;;;;;;;8.80;2.85;;;4.20;99.90;;;;;;4998348;28;20046;-94
2024/01/05 09:38:52;;;;;;;6.55;2.75;;;4.20;99.90;;;;;;4991682;28;20030;-92
2024/01/05 09:41:18;;;;;;;9.00;2.55;;;4.30;99.90;;;;;;4990574;28;20033;-93
2024/01/05 09:43:47;;;;;;;6.25;2.45;;;4.30;99.90;;;;;;4987011;28;20481;-93
2024/01/05 09:46:14;;;;;;;6.05;2.60;;;4.30;99.90;;;;;;4989497;28;20033;-92
2024/01/05 09:48:40;;;;;;;6.10;2.80;;;4.40;99.90;;;;;;4995645;28;20229;-90
2024/01/05 09:51:09;;;;;;;4.78;2.05;;;4.40;99.90;;;;;;4992067;28;20026;-92
2024/01/05 09:53:34;;;;;;;7.15;2.17;;;4.40;99.90;;;;;;4972899;28;20061;-93
2024/01/05 09:56:02;;;;;;;5.95;2.22;;;4.40;99.90;;;;;;4989325;28;20062;-94
2024/01/05 09:58:28;;;;;;;7.88;2.00;;;4.50;99.90;;;;;;4995366;28;20182;-94
2024/01/05 10:00:57;;;;;;;8.10;2.53;;;4.50;99.90;;;;;;4997168;28;20022;-93
2024/01/05 10:03:24;;;;;;;2.53;1.60;;;4.60;99.90;;;;;;4998129;28;20053;-93
2024/01/05 10:05:53;;;;;;;5.07;2.38;;;4.60;99.90;;;;;;4992484;28;20022;-94
2024/01/05 10:08:22;;;;;;;3.70;1.63;;;4.60;99.90;;;;;;4994795;28;20769;-92
2024/01/05 10:11:01;;;;;;;3.88;1.60;;;4.60;99.90;;;;;;4996312;28;20536;-93
2024/01/05 10:13:27;;;;;;;4.38;1.65;;;4.60;99.90;;;;;;4990224;28;20489;-93
2024/01/05 10:15:54;;;;;;;7.95;2.58;;;4.70;99.90;;;;;;4986080;28;20061;-94
2024/01/05 10:18:20;;;;;;;2.10;1.35;;;4.70;99.90;;;;;;4987152;28;20022;-93
2024/01/05 10:20:46;;;;;;;2.22;1.48;;;4.70;99.90;;;;;;4996490;28;20040;-94
2024/01/05 10:23:13;;;;;;;3.15;1.40;;;4.70;99.90;;;;;;5008554;28;20022;-93
2024/01/05 10:25:39;;;;;;;4.05;1.25;;;4.70;99.90;;;;;;4996390;28;20026;-94
2024/01/05 10:28:21;;;;;;;2.40;1.60;;;4.80;99.90;;;;;;5005006;28;20033;-93
2024/01/05 10:30:46;;;;;;;7.13;1.63;;;4.80;99.90;;;;;;5007356;28;20037;-93
2024/01/05 10:33:12;;;;;;;3.30;1.58;;;4.90;99.90;;;;;;4990773;28;20044;-92
2024/01/05 10:35:38;;;;;;;8.73;1.88;;;5.00;99.90;;;;;;4987872;28;20029;-93
2024/01/05 10:38:04;;;;;;;6.05;1.73;;;5.10;99.90;;;;;;4996251;28;20026;-93
2024/01/05 10:40:29;;;;;;;5.28;1.67;;;5.20;99.90;;;;;;4990287;28;20193;-93
2024/01/05 10:43:12;;;;;;;7.72;2.17;;;5.20;99.90;;;;;;4995103;28;20440;-93
2024/01/05 10:45:40;;;;;;;7.22;1.80;;;5.30;99.90;;;;;;4984744;28;20033;-92
2024/01/05 10:48:11;;;;;;;3.15;1.50;;;5.40;99.90;;;;;;4994388;28;20065;-93
2024/01/05 10:50:37;;;;;;;4.72;1.83;;;5.40;99.90;;;;;;4988094;28;20509;-93
2024/01/05 10:53:09;;;;;;;3.65;1.33;;;5.50;99.90;;;;;;4990532;28;20072;-92
2024/01/05 10:55:36;;;;;;;5.38;1.50;;;5.50;99.90;;;;;;5005922;28;20105;-92
2024/01/05 10:58:02;;;;;;;2.97;1.60;;;5.50;99.90;;;;;;4997065;28;20057;-92
2024/01/05 11:00:28;;;;;;;3.13;1.40;;;5.60;99.90;;;;;;4988491;28;20018;-93
2024/01/05 11:03:14;;;;;;;8.10;1.90;;;5.60;99.90;;;;;;5006393;28;20028;-93
2024/01/05 11:05:42;;;;;;;6.68;2.35;;;5.60;99.90;;;;;;5005146;28;20120;-92
2024/01/05 11:08:38;;;;;;;2.60;1.80;;;5.60;99.90;;;;;;4993196;28;20030;-92
2024/01/05 11:11:55;;;;;;;3.88;1.65;;;5.60;99.90;;;;;;4999401;28;20029;-92
2024/01/05 11:14:50;;;;;;;4.13;1.55;;;5.70;99.90;;;;;;4915462;29;20130;-91
2024/01/05 11:18:04;;;;;;;5.78;1.83;;;5.70;99.90;;;;;;4941492;29;20040;-93
2024/01/05 11:21:07;;;;;;;3.33;1.52;;;5.70;99.90;;;;;;4859824;29;20034;-93
2024/01/05 11:23:34;;;;;;;2.72;1.30;;;5.70;99.90;;;;;;4869175;29;20048;-93
2024/01/05 11:26:00;;;;;;;4.82;1.67;;;5.70;99.90;;;;;;4841098;29;20034;-93
2024/01/05 11:28:38;;;;;;;5.07;2.00;;;5.80;99.90;;;;;;4852402;29;20040;-93
2024/01/05 11:31:04;;;;;;;4.57;1.70;;;5.80;99.90;;;;;;4866433;29;20041;-93
2024/01/05 11:33:49;;;;;;;6.28;1.80;;;5.80;99.90;;;;;;4855058;29;20086;-94
2024/01/05 11:36:49;;;;;;;4.57;1.90;;;5.80;99.90;;;;;;4853079;29;20064;-94
2024/01/05 11:39:53;;;;;;;4.03;1.75;;;5.90;99.90;;;;;;4856157;29;20081;-91
2024/01/05 11:42:44;;;;;;;3.22;1.63;;;5.90;99.90;;;;;;4876576;29;20034;-95
2024/01/05 11:45:16;;;;;;;;;;;5.90;99.90;;;;;;4876247;29;20041;-95
2024/01/05 11:47:47;;;;;;;4.90;2.35;;;6.00;99.90;;;;;;4902117;29;20014;-94
2024/01/05 11:50:49;;;;;;;2.95;1.90;;;6.00;99.90;;;;;;4890350;29;20045;-96
2024/01/05 11:53:24;;;;;;;4.90;1.85;;;6.00;99.90;;;;;;4887777;29;20053;-95
2024/01/05 11:55:56;;;;;;;3.70;1.90;;;6.00;99.90;;;;;;4981987;28;20066;-96
2024/01/05 11:58:42;;;;;;;3.33;2.00;;;6.00;99.90;;;;;;5006926;28;20034;-96
2024/01/05 12:01:43;;;;;;;4.72;1.95;;;6.10;99.90;;;;;;5005053;28;20022;-96
2024/01/05 12:04:42;;;;;;;5.47;2.50;;;6.10;99.90;;;;;;5013232;28;20041;-96
2024/01/05 12:07:42;;;;;;;4.15;2.50;;;6.10;99.90;;;;;;5030576;28;20053;-94
2024/01/05 12:10:37;;;;;;;7.40;2.30;;;6.10;99.90;;;;;;5011474;28;20025;-95
2024/01/05 12:14:00;;;;;;;8.23;3.50;;;6.10;99.90;;;;;;5008321;28;20042;-96
2024/01/05 12:16:31;;;;;;;2.05;1.50;;;6.20;99.90;;;;;;5007662;28;20054;-95
2024/01/05 12:19:40;;;;;;;7.78;1.80;;;6.20;99.90;;;;;;5012848;28;20099;-95
2024/01/05 12:22:45;;;;;;;5.18;3.10;;;6.20;99.90;;;;;;4997824;28;20022;-96
2024/01/05 12:25:41;;;;;;;6.03;2.53;;;6.20;99.90;;;;;;5013765;28;20033;-96
2024/01/05 12:28:35;;;;;;;2.35;1.65;;;6.20;99.90;;;;;;5012598;28;20026;-96
2024/01/05 12:31:38;;;;;;;8.73;4.25;;;6.20;99.90;;;;;;5009329;28;20038;-96
2024/01/05 12:34:31;;;;;;;4.00;1.95;;;6.30;99.90;;;;;;5014349;28;20026;-96
2024/01/05 12:37:27;;;;;;;2.50;1.70;;;6.30;99.90;;;;;;5012565;28;20038;-96
2024/01/05 12:40:16;;;;;;;3.40;1.27;;;6.30;99.90;;;;;;4998284;28;20030;-95
2024/01/05 12:43:36;;;;;;;4.40;1.40;;;6.40;99.90;;;;;;5010336;28;20048;-96
2024/01/05 12:46:24;;;;;;;2.85;1.33;;;6.50;99.90;;;;;;5009667;28;20069;-95
2024/01/05 12:52:50;;;;;;;4.47;1.33;;;6.70;99.90;;;;;;4985917;28;20046;-96
2024/01/05 13:05:44;;;;;;;1.83;1.08;;;7.40;99.90;;;;;;4949362;29;20042;-94
2024/01/05 13:08:50;;;;;;;1.38;0.80;;;7.90;99.90;;;;;;4959106;28;20045;-96
2024/01/05 13:18:28;;;;;;;2.38;1.00;;;8.50;99.90;;;;;;4982807;28;20110;-96
2024/01/05 13:21:45;;;;;;;1.88;0.80;;;8.40;99.90;;;;;;4950384;29;20043;-95
2024/01/05 13:24:29;;;;;;;2.28;0.73;;;8.30;99.90;;;;;;4959965;28;20027;-95
2024/01/05 13:27:05;;;;;;;3.10;1.15;;;8.30;99.90;;;;;;5016518;28;20034;-96
2024/01/05 13:29:57;;;;;;;1.90;0.80;;;8.30;99.90;;;;;;4988258;28;20045;-96